createdAt,value
2022-11-17T00:00:30.406Z,94959.38
2022-11-17T00:03:15.191Z,94955.25
2022-11-17T00:06:00.173Z,94950.91
2022-11-17T00:08:45.129Z,94933.16
2022-11-17T00:11:30.031Z,94933.81
2022-11-17T00:14:14.947Z,94941.28
2022-11-17T00:16:59.829Z,94936.91
2022-11-17T00:19:44.656Z,94924.19
2022-11-17T00:22:29.453Z,94915.97
2022-11-17T00:25:14.472Z,94908.53
2022-11-17T00:27:59.333Z,94889.28
2022-11-17T00:30:44.210Z,94891.66
2022-11-17T00:33:29.139Z,94882.38
2022-11-17T00:36:14.050Z,94872.63
2022-11-17T00:38:59.022Z,94880.66
2022-11-17T00:41:43.933Z,94863.53
2022-11-17T00:44:28.815Z,94866.56
2022-11-17T00:47:13.660Z,94858.72
2022-11-17T00:49:58.730Z,94852.94
2022-11-17T00:52:43.489Z,94849.94
2022-11-17T00:55:28.372Z,94861.22
2022-11-17T00:58:13.175Z,94852.28
2022-11-17T01:00:58.228Z,94857.63
2022-11-17T01:03:43.045Z,94858.88
2022-11-17T01:06:27.802Z,94857.63
2022-11-17T01:09:12.710Z,94859.56
2022-11-17T01:11:57.589Z,94842.53
2022-11-17T01:14:42.417Z,94859.00
2022-11-17T01:17:27.315Z,94903.28
2022-11-17T01:20:12.243Z,94909.47
2022-11-17T01:22:57.109Z,94912.00
2022-11-17T01:25:41.960Z,94908.44
2022-11-17T01:28:26.993Z,94891.84
2022-11-17T01:31:11.910Z,94887.38
2022-11-17T01:33:57.014Z,94882.53
2022-11-17T01:36:41.867Z,94903.31
2022-11-17T01:39:26.860Z,94909.91
2022-11-17T01:42:11.765Z,94892.00
2022-11-17T01:44:56.586Z,94895.78
2022-11-17T01:47:41.412Z,94909.31
2022-11-17T01:50:26.388Z,94914.25
2022-11-17T01:53:11.375Z,94921.66
2022-11-17T01:55:56.248Z,94917.97
2022-11-17T01:58:41.182Z,94921.63
2022-11-17T02:01:26.150Z,94923.03
2022-11-17T02:04:11.015Z,94915.06
2022-11-17T02:06:55.825Z,94903.63
2022-11-17T02:09:40.798Z,94902.50
2022-11-17T02:12:25.466Z,94896.03
2022-11-17T02:15:10.443Z,94892.13
2022-11-17T02:17:55.332Z,94884.84
2022-11-17T02:20:40.034Z,94873.16
2022-11-17T02:23:25.177Z,94876.75
2022-11-17T02:26:10.147Z,94880.16
2022-11-17T02:28:54.989Z,94868.47
2022-11-17T02:31:39.790Z,94868.06
2022-11-17T02:34:24.646Z,94865.78
2022-11-17T02:37:09.436Z,94863.78
2022-11-17T02:39:54.208Z,94860.09
2022-11-17T02:42:39.145Z,94841.13
2022-11-17T02:45:23.959Z,94845.09
2022-11-17T02:48:08.941Z,94849.88
2022-11-17T02:50:53.684Z,94845.81
2022-11-17T02:53:38.866Z,94832.78
2022-11-17T02:56:23.928Z,94844.34
2022-11-17T02:59:08.974Z,94862.53
2022-11-17T03:01:53.897Z,94859.97
2022-11-17T03:04:38.854Z,94875.44
2022-11-17T03:07:23.762Z,94879.53
2022-11-17T03:10:08.674Z,94882.84
2022-11-17T03:12:53.797Z,94879.31
2022-11-17T03:15:38.837Z,94872.91
2022-11-17T03:18:23.777Z,94885.41
2022-11-17T03:21:08.631Z,94874.59
2022-11-17T03:23:53.526Z,94863.31
2022-11-17T03:26:38.385Z,94873.28
2022-11-17T03:29:23.272Z,94871.06
2022-11-17T03:32:08.212Z,94861.25
2022-11-17T03:34:52.911Z,94861.16
2022-11-17T03:37:37.958Z,94874.53
2022-11-17T03:40:22.802Z,94874.44
2022-11-17T03:43:07.807Z,94883.53
2022-11-17T03:45:52.579Z,94876.75
2022-11-17T03:48:37.548Z,94866.63
2022-11-17T03:51:22.374Z,94873.63
2022-11-17T03:54:07.407Z,94874.09
2022-11-17T03:56:52.326Z,94876.28
2022-11-17T03:59:37.253Z,94885.72
2022-11-17T04:02:22.351Z,94874.78
2022-11-17T04:05:07.140Z,94874.38
2022-11-17T04:07:52.127Z,94868.41
2022-11-17T04:10:36.918Z,94876.59
2022-11-17T04:13:21.800Z,94878.19
2022-11-17T04:16:06.750Z,94888.81
2022-11-17T04:18:55.917Z,94885.97
2022-11-17T04:21:43.561Z,94890.53
2022-11-17T04:24:28.426Z,94884.03
2022-11-17T04:27:13.268Z,94888.84
2022-11-17T04:29:58.206Z,94891.34
2022-11-17T04:32:43.173Z,94892.50
2022-11-17T04:35:28.155Z,94898.94
2022-11-17T04:38:13.058Z,94895.38
2022-11-17T04:40:58.104Z,94882.56
2022-11-17T04:43:42.985Z,94891.72
2022-11-17T04:46:27.828Z,94884.16
2022-11-17T04:49:12.674Z,94882.50
2022-11-17T04:51:57.528Z,94883.03
2022-11-17T04:54:42.537Z,94890.81
2022-11-17T04:57:27.512Z,94870.81
2022-11-17T05:00:12.407Z,94861.97
2022-11-17T05:02:57.275Z,94866.56
2022-11-17T05:05:42.295Z,94858.84
2022-11-17T05:08:27.093Z,94855.03
2022-11-17T05:11:12.001Z,94861.13
2022-11-17T05:13:56.749Z,94849.41
2022-11-17T05:16:41.559Z,94847.19
2022-11-17T05:19:26.564Z,94832.13
2022-11-17T05:22:11.371Z,94837.59
2022-11-17T05:24:56.418Z,94840.16
2022-11-17T05:27:41.158Z,94843.66
2022-11-17T05:30:25.981Z,94839.38
2022-11-17T05:33:10.897Z,94857.53
2022-11-17T05:35:55.878Z,94860.16
2022-11-17T05:38:40.851Z,94863.63
2022-11-17T05:41:25.622Z,94850.59
2022-11-17T05:44:10.591Z,94860.16
2022-11-17T05:46:55.502Z,94876.50
2022-11-17T05:49:40.478Z,94856.22
2022-11-17T05:52:25.377Z,94863.34
2022-11-17T05:55:10.514Z,94851.63
2022-11-17T05:57:55.370Z,94856.94
2022-11-17T06:00:40.399Z,94869.44
2022-11-17T06:03:25.328Z,94869.97
2022-11-17T06:06:10.178Z,94878.31
2022-11-17T06:08:55.264Z,94906.81
2022-11-17T06:11:40.117Z,94892.31
2022-11-17T06:14:25.260Z,94887.97
2022-11-17T06:17:10.186Z,94899.06
2022-11-17T06:19:55.776Z,94893.41
2022-11-17T06:22:45.405Z,94894.34
2022-11-17T06:25:32.971Z,94910.13
2022-11-17T06:28:17.947Z,94904.88
2022-11-17T06:31:02.816Z,94913.03
2022-11-17T06:33:47.764Z,94912.38
2022-11-17T06:36:32.853Z,94934.41
2022-11-17T06:39:17.772Z,94930.78
2022-11-17T06:42:02.549Z,94947.50
2022-11-17T06:44:47.375Z,94953.44
2022-11-17T06:47:32.419Z,94958.94
2022-11-17T06:50:17.249Z,94950.06
2022-11-17T06:53:02.129Z,94949.75
2022-11-17T06:55:47.019Z,94966.81
2022-11-17T06:58:31.758Z,94969.22
2022-11-17T07:01:16.827Z,94965.31
2022-11-17T07:04:02.132Z,94959.50
2022-11-17T07:06:47.089Z,94952.31
2022-11-17T07:09:32.169Z,94966.91
2022-11-17T07:12:17.014Z,94976.34
2022-11-17T07:15:02.038Z,94977.31
2022-11-17T07:17:46.993Z,94982.09
2022-11-17T07:20:32.037Z,94989.78
2022-11-17T07:23:16.789Z,94994.69
2022-11-17T07:26:01.779Z,94989.00
2022-11-17T07:28:46.657Z,94996.72
2022-11-17T07:31:31.706Z,94990.97
2022-11-17T07:34:16.537Z,94995.75
2022-11-17T07:37:01.616Z,94995.91
2022-11-17T07:39:46.465Z,94986.94
2022-11-17T07:42:31.476Z,94990.50
2022-11-17T07:45:16.450Z,94989.28
2022-11-17T07:48:01.242Z,94981.44
2022-11-17T07:50:46.320Z,94989.06
2022-11-17T07:53:31.205Z,94990.53
2022-11-17T07:56:16.157Z,94982.78
2022-11-17T07:59:01.002Z,94987.09
2022-11-17T08:01:45.908Z,94988.19
2022-11-17T08:04:30.730Z,94987.66
2022-11-17T08:07:15.716Z,94989.78
2022-11-17T08:10:01.079Z,94990.84
2022-11-17T08:12:45.914Z,94997.09
2022-11-17T08:15:30.975Z,94993.41
2022-11-17T08:18:15.766Z,94997.84
2022-11-17T08:21:00.688Z,95002.63
2022-11-17T08:23:45.619Z,95001.81
2022-11-17T08:26:30.536Z,94987.22
2022-11-17T08:29:15.539Z,94993.75
2022-11-17T08:32:00.377Z,94995.03
2022-11-17T08:34:45.272Z,94994.09
2022-11-17T08:37:30.131Z,94994.16
2022-11-17T08:40:15.120Z,94996.31
2022-11-17T08:43:01.455Z,94971.75
2022-11-17T08:45:46.968Z,94984.34
2022-11-17T08:48:32.737Z,94980.34
2022-11-17T08:51:17.992Z,94984.75
2022-11-17T08:54:02.783Z,94995.66
2022-11-17T08:56:47.881Z,94986.94
2022-11-17T08:59:33.320Z,94995.19
2022-11-17T09:02:18.161Z,94992.16
2022-11-17T09:05:02.984Z,95000.78
2022-11-17T09:07:47.914Z,95005.25
2022-11-17T09:10:33.160Z,94998.09
2022-11-17T09:13:18.855Z,94987.88
2022-11-17T09:16:03.932Z,94990.91
2022-11-17T09:18:48.969Z,94997.78
2022-11-17T09:21:33.786Z,95007.66
2022-11-17T09:24:18.768Z,95002.59
2022-11-17T09:27:03.704Z,95000.56
2022-11-17T09:29:48.670Z,95009.84
2022-11-17T09:32:33.665Z,95019.53
2022-11-17T09:35:19.071Z,95015.34
2022-11-17T09:38:03.975Z,95023.16
2022-11-17T09:40:48.789Z,95025.81
2022-11-17T09:43:33.802Z,95021.06
2022-11-17T09:46:18.632Z,95024.41
2022-11-17T09:49:03.462Z,95012.50
2022-11-17T09:51:48.459Z,95015.16
2022-11-17T09:54:33.159Z,95005.19
2022-11-17T09:57:18.281Z,95011.94
2022-11-17T10:00:03.144Z,94989.53
2022-11-17T10:02:47.973Z,94977.81
2022-11-17T10:05:32.682Z,94974.00
2022-11-17T10:08:17.724Z,94988.56
2022-11-17T10:11:02.625Z,94986.13
2022-11-17T10:13:47.530Z,94984.56
2022-11-17T10:16:32.590Z,94979.44
2022-11-17T10:19:17.330Z,94964.72
2022-11-17T10:22:02.419Z,94963.03
2022-11-17T10:24:47.390Z,94966.81
2022-11-17T10:27:32.224Z,94959.03
2022-11-17T10:30:17.144Z,94957.03
2022-11-17T10:33:02.034Z,94952.06
2022-11-17T10:35:46.882Z,94955.13
2022-11-17T10:38:31.833Z,94941.00
2022-11-17T10:41:16.645Z,94937.44
2022-11-17T10:44:01.529Z,94937.63
2022-11-17T10:46:46.754Z,94941.84
2022-11-17T10:49:31.840Z,94936.59
2022-11-17T10:52:16.883Z,94932.94
2022-11-17T10:55:01.762Z,94920.88
2022-11-17T10:57:46.839Z,94918.22
2022-11-17T11:00:31.537Z,94948.19
2022-11-17T11:03:16.520Z,94932.25
2022-11-17T11:06:01.445Z,94927.38
2022-11-17T11:08:46.300Z,94942.25
2022-11-17T11:11:36.080Z,94923.22
2022-11-17T11:14:21.434Z,94924.94
2022-11-17T11:17:06.441Z,94951.97
2022-11-17T11:19:51.431Z,94958.72
2022-11-17T11:22:36.205Z,94949.75
2022-11-17T11:25:21.123Z,94942.13
2022-11-17T11:28:05.875Z,94918.44
2022-11-17T11:30:50.698Z,94916.91
2022-11-17T11:33:35.832Z,94905.94
2022-11-17T11:36:21.094Z,94905.72
2022-11-17T11:39:06.005Z,94900.06
2022-11-17T11:41:50.682Z,94893.13
2022-11-17T11:44:35.606Z,94877.31
2022-11-17T11:47:20.356Z,94872.81
2022-11-17T11:50:05.299Z,94859.91
2022-11-17T11:52:50.184Z,94872.81
2022-11-17T11:55:35.011Z,94864.22
2022-11-17T11:58:19.951Z,94864.50
2022-11-17T12:01:04.879Z,94878.66
2022-11-17T12:03:49.800Z,94878.63
2022-11-17T12:06:34.772Z,94873.91
2022-11-17T12:09:19.735Z,94862.28
2022-11-17T12:12:04.645Z,94871.25
2022-11-17T12:14:49.560Z,94861.47
2022-11-17T12:17:34.342Z,94859.28
2022-11-17T12:20:19.260Z,94866.28
2022-11-17T12:23:04.147Z,94865.38
2022-11-17T12:25:53.513Z,94872.06
2022-11-17T12:28:39.396Z,94904.91
2022-11-17T12:31:24.281Z,94904.91
2022-11-17T12:34:09.649Z,94927.41
2022-11-17T12:36:54.737Z,94941.59
2022-11-17T12:39:39.527Z,94931.41
2022-11-17T12:42:24.427Z,94914.28
2022-11-17T12:45:09.396Z,94902.66
2022-11-17T12:48:11.499Z,94882.97
2022-11-17T12:51:04.485Z,94897.41
2022-11-17T12:53:49.726Z,94890.72
2022-11-17T12:56:34.593Z,94912.13
2022-11-17T12:59:19.595Z,94923.06
2022-11-17T13:02:04.364Z,94926.34
2022-11-17T13:04:49.820Z,94906.81
2022-11-17T13:07:36.300Z,94908.34
2022-11-17T13:10:21.426Z,94903.59
2022-11-17T13:13:06.295Z,94907.72
2022-11-17T13:15:51.270Z,94890.09
2022-11-17T13:18:36.035Z,94892.13
2022-11-17T13:21:20.770Z,94889.75
2022-11-17T13:24:05.715Z,94882.00
2022-11-17T13:26:50.442Z,94887.94
2022-11-17T13:29:35.594Z,94882.91
2022-11-17T13:32:20.460Z,94883.09
2022-11-17T13:35:05.449Z,94875.63
2022-11-17T13:37:50.437Z,94875.69
2022-11-17T13:40:35.324Z,94876.31
2022-11-17T13:43:20.422Z,94875.72
2022-11-17T13:46:05.301Z,94873.94
2022-11-17T13:48:50.183Z,94864.38
2022-11-17T13:51:35.260Z,94864.22
2022-11-17T13:54:20.615Z,94860.44
2022-11-17T13:57:05.760Z,94850.13
2022-11-17T13:59:50.540Z,94848.19
2022-11-17T14:02:35.680Z,94847.09
2022-11-17T14:05:20.563Z,94832.00
2022-11-17T14:08:05.618Z,94824.59
2022-11-17T14:10:50.560Z,94819.91
2022-11-17T14:13:35.751Z,94820.16
2022-11-17T14:16:21.010Z,94819.75
2022-11-17T14:19:06.020Z,94818.06
2022-11-17T14:21:51.051Z,94804.19
2022-11-17T14:24:35.864Z,94792.50
2022-11-17T14:27:20.800Z,94793.53
2022-11-17T14:30:05.767Z,94783.50
2022-11-17T14:32:50.762Z,94786.34
2022-11-17T14:35:35.665Z,94785.41
2022-11-17T14:38:20.597Z,94778.75
2022-11-17T14:41:05.458Z,94778.53
2022-11-17T14:43:50.249Z,94773.34
2022-11-17T14:46:35.288Z,94763.25
2022-11-17T14:49:20.096Z,94772.56
2022-11-17T14:52:05.523Z,94765.44
2022-11-17T14:54:50.368Z,94761.53
2022-11-17T14:57:35.348Z,94761.31
2022-11-17T15:00:20.822Z,94753.38
2022-11-17T15:03:06.035Z,94744.06
2022-11-17T15:05:51.047Z,94736.25
2022-11-17T15:08:35.730Z,94730.13
2022-11-17T15:11:20.660Z,94727.06
2022-11-17T15:14:05.627Z,94724.19
2022-11-17T15:16:50.535Z,94721.25
2022-11-17T15:19:35.425Z,94714.53
2022-11-17T15:22:20.402Z,94705.41
2022-11-17T15:25:05.206Z,94701.00
2022-11-17T15:27:49.954Z,94695.88
2022-11-17T15:30:34.995Z,94689.66
2022-11-17T15:33:19.779Z,94679.50
2022-11-17T15:36:04.793Z,94685.88
2022-11-17T15:38:49.558Z,94688.47
2022-11-17T15:41:34.588Z,94692.66
2022-11-17T15:44:19.378Z,94684.19
2022-11-17T15:47:04.387Z,94682.44
2022-11-17T15:49:49.291Z,94672.66
2022-11-17T15:52:57.054Z,94661.03
2022-11-17T15:55:39.451Z,94657.88
2022-11-17T15:58:24.712Z,94666.53
2022-11-17T16:01:09.621Z,94663.69
2022-11-17T16:03:54.996Z,94666.09
2022-11-17T16:06:39.649Z,94670.31
2022-11-17T16:09:24.522Z,94663.88
2022-11-17T16:12:09.683Z,94651.56
2022-11-17T16:14:54.922Z,94659.75
2022-11-17T16:17:39.744Z,94667.66
2022-11-17T16:20:24.683Z,94665.72
2022-11-17T16:23:10.040Z,94668.00
2022-11-17T16:25:54.938Z,94664.78
2022-11-17T16:28:39.914Z,94662.84
2022-11-17T16:31:25.236Z,94655.91
2022-11-17T16:34:10.243Z,94665.41
2022-11-17T16:36:54.995Z,94660.94
2022-11-17T16:39:40.086Z,94666.50
2022-11-17T16:42:25.465Z,94661.53
2022-11-17T16:45:10.344Z,94664.97
2022-11-17T16:47:55.389Z,94667.72
2022-11-17T16:50:40.336Z,94665.66
2022-11-17T16:53:25.343Z,94685.28
2022-11-17T16:56:10.658Z,94688.94
2022-11-17T16:58:55.807Z,94680.38
2022-11-17T17:01:41.119Z,94687.34
2022-11-17T17:04:25.990Z,94681.09
2022-11-17T17:07:10.942Z,94696.75
2022-11-17T17:09:55.687Z,94697.06
2022-11-17T17:12:40.606Z,94712.78
2022-11-17T17:15:25.653Z,94712.53
2022-11-17T17:18:10.675Z,94711.56
2022-11-17T17:20:55.426Z,94710.25
2022-11-17T17:23:40.418Z,94717.41
2022-11-17T17:26:25.349Z,94726.84
2022-11-17T17:29:10.387Z,94726.66
2022-11-17T17:31:55.359Z,94732.03
2022-11-17T17:34:40.349Z,94742.66
2022-11-17T17:37:25.423Z,94743.22
2022-11-17T17:40:10.295Z,94743.13
2022-11-17T17:42:55.452Z,94751.69
2022-11-17T17:45:40.197Z,94748.59
2022-11-17T17:48:25.032Z,94747.59
2022-11-17T17:51:09.802Z,94744.69
2022-11-17T17:53:54.802Z,94748.31
2022-11-17T17:56:39.866Z,94737.28
2022-11-17T17:59:24.818Z,94739.09
2022-11-17T18:02:09.809Z,94746.59
2022-11-17T18:04:54.834Z,94742.91
2022-11-17T18:07:39.917Z,94751.97
2022-11-17T18:10:25.280Z,94758.78
2022-11-17T18:13:10.984Z,94780.81
2022-11-17T18:15:56.005Z,94802.88
2022-11-17T18:18:40.801Z,94816.88
2022-11-17T18:21:25.912Z,94826.03
2022-11-17T18:24:10.803Z,94850.13
2022-11-17T18:26:55.837Z,94846.63
2022-11-17T18:29:40.637Z,94855.56
2022-11-17T18:32:25.711Z,94882.25
2022-11-17T18:35:10.825Z,94911.16
2022-11-17T18:37:55.844Z,94910.88
2022-11-17T18:40:40.775Z,94924.47
2022-11-17T18:43:25.679Z,94919.16
2022-11-17T18:46:12.037Z,94917.84
2022-11-17T18:48:56.982Z,94926.75
2022-11-17T18:51:42.074Z,94940.66
2022-11-17T18:54:26.879Z,94938.31
2022-11-17T18:57:11.715Z,94931.00
2022-11-17T18:59:56.736Z,94937.66
2022-11-17T19:02:41.759Z,94934.44
2022-11-17T19:05:26.777Z,94924.16
2022-11-17T19:08:11.578Z,94914.28
2022-11-17T19:10:56.548Z,94915.00
2022-11-17T19:13:41.344Z,94913.81
2022-11-17T19:16:26.272Z,94925.97
2022-11-17T19:19:11.207Z,94936.75
2022-11-17T19:21:56.077Z,94929.81
2022-11-17T19:24:41.067Z,94926.72
2022-11-17T19:27:25.863Z,94915.94
2022-11-17T19:30:10.855Z,94925.50
2022-11-17T19:32:55.727Z,94926.03
2022-11-17T19:35:40.614Z,94929.06
2022-11-17T19:38:25.460Z,94921.22
2022-11-17T19:41:10.442Z,94925.97
2022-11-17T19:43:56.384Z,94919.31
2022-11-17T19:46:41.295Z,94911.66
2022-11-17T19:49:26.269Z,94908.34
2022-11-17T19:52:10.984Z,94911.16
2022-11-17T19:54:55.954Z,94904.44
2022-11-17T19:57:40.660Z,94904.41
2022-11-17T20:00:25.730Z,94911.22
2022-11-17T20:03:10.612Z,94899.34
2022-11-17T20:05:55.602Z,94903.66
2022-11-17T20:08:40.560Z,94909.88
2022-11-17T20:11:25.556Z,94904.19
2022-11-17T20:14:10.483Z,94904.56
2022-11-17T20:16:55.524Z,94912.00
2022-11-17T20:19:40.440Z,94904.34
2022-11-17T20:22:25.366Z,94900.78
2022-11-17T20:25:10.399Z,94903.09
2022-11-17T20:27:55.401Z,94902.56
2022-11-17T20:30:40.327Z,94886.28
2022-11-17T20:33:25.314Z,94894.22
2022-11-17T20:36:10.012Z,94892.75
2022-11-17T20:38:54.928Z,94898.25
2022-11-17T20:41:39.770Z,94900.56
2022-11-17T20:44:24.700Z,94908.28
2022-11-17T20:47:09.531Z,94905.28
2022-11-17T20:49:54.557Z,94901.66
2022-11-17T20:52:39.356Z,94902.84
2022-11-17T20:55:24.380Z,94902.91
2022-11-17T20:58:09.335Z,94900.13
2022-11-17T21:00:54.253Z,94895.63
2022-11-17T21:03:39.137Z,94899.06
2022-11-17T21:06:24.061Z,94893.25
2022-11-17T21:09:09.134Z,94898.94
2022-11-17T21:11:53.883Z,94887.03
2022-11-17T21:14:38.683Z,94879.94
2022-11-17T21:17:23.541Z,94877.94
2022-11-17T21:20:08.429Z,94868.44
2022-11-17T21:22:53.332Z,94864.84
2022-11-17T21:25:38.189Z,94878.78
2022-11-17T21:28:23.254Z,94863.06
2022-11-17T21:31:08.212Z,94880.47
2022-11-17T21:33:53.263Z,94890.25
2022-11-17T21:36:38.104Z,94890.06
2022-11-17T21:39:23.207Z,94881.19
2022-11-17T21:42:08.056Z,94883.66
2022-11-17T21:44:52.914Z,94895.16
2022-11-17T21:47:37.811Z,94890.13
2022-11-17T21:50:23.944Z,94891.41
2022-11-17T21:53:09.189Z,94880.13
2022-11-17T21:55:54.170Z,94870.66
2022-11-17T21:58:39.089Z,94872.75
2022-11-17T22:01:23.993Z,94871.91
2022-11-17T22:04:08.750Z,94879.53
2022-11-17T22:06:53.763Z,94889.66
2022-11-17T22:09:38.987Z,94898.16
2022-11-17T22:12:23.899Z,94901.50
2022-11-17T22:15:11.686Z,94898.44
2022-11-17T22:17:57.012Z,94890.66
2022-11-17T22:20:42.178Z,94894.69
2022-11-17T22:23:27.363Z,94889.06
2022-11-17T22:26:12.449Z,94872.16
2022-11-17T22:28:57.290Z,94869.06
2022-11-17T22:31:42.275Z,94876.34
2022-11-17T22:34:27.118Z,94873.56
2022-11-17T22:37:12.099Z,94864.16
2022-11-17T22:39:57.053Z,94870.38
2022-11-17T22:42:41.907Z,94887.28
2022-11-17T22:45:26.887Z,94889.22
2022-11-17T22:48:11.720Z,94898.63
2022-11-17T22:50:56.745Z,94904.59
2022-11-17T22:53:41.554Z,94900.06
2022-11-17T22:56:26.653Z,94895.31
2022-11-17T22:59:11.467Z,94910.28
2022-11-17T23:01:56.395Z,94912.16
2022-11-17T23:04:41.238Z,94928.41
2022-11-17T23:07:26.380Z,94936.06
2022-11-17T23:10:12.181Z,94936.91
2022-11-17T23:12:57.050Z,94935.56
2022-11-17T23:15:42.123Z,94946.63
2022-11-17T23:18:26.975Z,94958.94
2022-11-17T23:21:11.855Z,94944.56
2022-11-17T23:23:56.838Z,94961.00
2022-11-17T23:26:41.776Z,94971.91
2022-11-17T23:29:26.612Z,94983.44
2022-11-17T23:32:11.509Z,94971.81
2022-11-17T23:34:56.523Z,94984.63
2022-11-17T23:37:41.434Z,94987.19
2022-11-17T23:40:26.415Z,95002.34
2022-11-17T23:43:11.205Z,94996.69
2022-11-17T23:45:56.420Z,95003.22
2022-11-17T23:48:41.689Z,95000.59
2022-11-17T23:51:26.535Z,94985.72
2022-11-17T23:54:11.345Z,94983.25
2022-11-17T23:56:56.436Z,94976.19
2022-11-17T23:59:41.289Z,94978.66
